Mijn Webcam  Mijn Webcam


Bezoek onze andere website:

Template documentation
and downloads

HWS Template - cumulus versie

And another site



METAR rapporten vliegvelden

   
EHGG - Groningen/Eelde, Netherlands
Afstand tot: Z 20 km
Gewijzigd: 28-05-2024 03:55
Wat regen mogelijk, Bewolking  
Wat regen mogelijk, Bewolking  
   Wind: ZZW 5.6 km/h
Wind: ZZW 5.6 km/h
Temperatuur: 11°C
Dauwpunt: 11°C
Vochtigheid: 100%
Barometer: 1016 hPa
Bewolking: Bewolking
Zicht: meer dan 10 km
Bewolking: Licht bewolkt 457.2 m,
Bewolking 1249.7 m
EHGG 280155Z AUTO 21003KT 9999 -RA FEW015CB OVC041 11/11 Q1016 REDZRA
EHMA - Awg-1 Sea, Netherlands
Afstand tot: WNW 45 km
Gewijzigd: 28-05-2024 03:55
Grotendeels bewolkt  
Grotendeels bewolkt  
   Wind: ZZW 22.2 km/h
Wind: ZZW 22.2 km/h
Temperatuur: 14°C
Dauwpunt: 9°C
Vochtigheid: 72%
Barometer: 1015 hPa
Bewolking: Grotendeels bewolkt
Zicht: meer dan 10 km
Bewolking: Licht bewolkt 548.6 m,
Gedeeltelijk bewolkt 1036.3 m,
Grotendeels bewolkt 1280.2 m
EHMA 280155Z AUTO 20012KT 9999 FEW018CB SCT034 BKN042 14/09 Q1015
 

Script ontwikkeld door  Saratoga-weather.org Aangepast voor de template door  Weerstation Leuven

U vindt ons ook hier:

Het Weer Aktueel

UK Metoffice

European Weather Network

WeatherCloud

Weather Underground

Benelux Weer Netwerk

AWEKAS

WeatherlinkIP

HAMweather, WeatherForYou, PWS Weather

Apparatuur in gebruik:

Weerstation
Davis VP2

Weerprogramma
Cumulus

Davis VP2

Cumulus